Terminal Aerodrome Forecast
Issued by NWS

Home | Current Version | Previous Version | Text Only | Print | Product List | Glossary On
Versions: 1 2 3 4 5 6 7 8 9 10 11 12
000
FTUS41 KAKQ 041720
TAFPHF
TAF
KPHF 041720Z 0418/0518 08004KT P6SM OVC120
     FM050000 VRB03KT 6SM -RA OVC070
     FM050500 14005KT 4SM -RA BR OVC035
     FM050700 15005KT 1SM -RA BR OVC012
     FM051100 00000KT 3SM -RA BR OVC010
     FM051500 35005KT P6SM BKN035=

USA.gov is the U.S. government's official web portal to all federal, state and local government web resources and services.